Archival Weather

Salzburg

Salzburg, Austria (LOWS)

Report from: Thursday, September 21, 2023 8:50 AM CEST
Current time: Saturday, February 24, 2024 5:50 PM CET

Current weather – Weather history – Daily summaries
Weather forecast

Temperature18.0°C (64.4°F)
Dew point13.0°C (55.4°F)
Winds 6 kts (3.1 m/s, 6.9 mph) South (170°)
Visibility6.2 mi. (10 km)
Clouds Few clouds 7,000 ft. (2,134 m)
Altimeter29.74 in.Hg (1007 mB)
Relative humidity73 %
Density altitude773 ft. (236 m)
Remarks Fully automated report
No significant changes expected in the next two hours
Flight conditions Visual Meteorological Conditions
Raw dataLOWS 210650Z AUTO 17006KT 9999 FEW070 18/13 Q1007 NOSIG
An error has occurred. This application may no longer respond until reloaded. Reload 🗙